createdAt,value
2022-08-23T00:01:51.981Z,91.16
2022-08-23T00:03:56.713Z,92.39
2022-08-23T00:05:58.355Z,92.55
2022-08-23T00:08:00.060Z,91.99
2022-08-23T00:10:01.733Z,92.21
2022-08-23T00:12:09.413Z,92.64
2022-08-23T00:14:13.231Z,93.09
2022-08-23T00:16:14.753Z,93.33
2022-08-23T00:18:16.528Z,92.58
2022-08-23T00:20:19.441Z,92.31
2022-08-23T00:22:21.125Z,92.38
2022-08-23T00:24:24.508Z,92.61
2022-08-23T00:26:26.110Z,92.63
2022-08-23T00:28:29.060Z,92.29
2022-08-23T00:30:30.661Z,92.39
2022-08-23T00:32:34.603Z,92.49
2022-08-23T00:34:36.989Z,93.00
2022-08-23T00:36:38.613Z,92.97
2022-08-23T00:38:40.422Z,93.15
2022-08-23T00:40:43.400Z,93.30
2022-08-23T00:43:01.150Z,93.16
2022-08-23T00:45:05.503Z,92.55
2022-08-23T00:47:07.918Z,93.20
2022-08-23T00:49:12.417Z,92.79
2022-08-23T00:51:18.856Z,93.67
2022-08-23T00:53:23.334Z,94.39
2022-08-23T00:55:26.313Z,94.21
2022-08-23T00:57:29.734Z,94.79
2022-08-23T00:59:32.210Z,95.52
2022-08-23T01:01:35.741Z,95.65
2022-08-23T01:03:42.073Z,95.85
2022-08-23T01:05:50.710Z,95.76
2022-08-23T01:07:55.540Z,95.38
2022-08-23T01:10:02.466Z,96.17
2022-08-23T01:12:08.754Z,96.26
2022-08-23T01:14:13.941Z,95.76
2022-08-23T01:16:19.792Z,95.89
2022-08-23T01:18:26.562Z,95.14
2022-08-23T01:20:35.669Z,95.11
2022-08-23T01:22:42.403Z,94.39
2022-08-23T01:25:07.111Z,94.51
2022-08-23T01:27:09.875Z,94.38
2022-08-23T01:29:11.508Z,93.82
2022-08-23T01:31:14.533Z,93.92
2022-08-23T01:33:16.153Z,93.61
2022-08-23T01:37:21.447Z,92.29
2022-08-23T01:39:22.998Z,92.42
2022-08-23T01:41:26.083Z,92.93
2022-08-23T01:43:27.725Z,93.25
2022-08-23T01:45:29.725Z,93.38
2022-08-23T01:47:31.270Z,93.24
2022-08-23T01:49:32.915Z,93.10
2022-08-23T01:51:34.416Z,93.25
2022-08-23T01:53:35.941Z,93.62
2022-08-23T01:55:39.421Z,93.91
2022-08-23T01:57:45.417Z,92.63
2022-08-23T01:59:50.017Z,92.79
2022-08-23T02:01:52.207Z,91.98
2022-08-23T02:04:00.861Z,92.24
2022-08-23T02:06:06.808Z,92.17
2022-08-23T02:08:09.146Z,92.08
2022-08-23T02:10:11.278Z,92.58
2022-08-23T02:12:12.778Z,92.35
2022-08-23T02:14:18.100Z,91.53
2022-08-23T02:16:24.001Z,91.66
2022-08-23T02:18:26.569Z,91.05
2022-08-23T02:20:28.106Z,91.00
2022-08-23T02:22:29.686Z,90.70
2022-08-23T02:24:31.722Z,91.53
2022-08-23T02:26:35.343Z,90.49
2022-08-23T02:28:38.400Z,89.82
2022-08-23T02:30:41.293Z,89.98
2022-08-23T02:32:43.477Z,89.83
2022-08-23T02:34:57.796Z,90.47
2022-08-23T02:37:07.328Z,89.83
2022-08-23T02:39:10.256Z,89.37
2022-08-23T02:41:12.344Z,89.44
2022-08-23T02:43:14.453Z,88.85
2022-08-23T02:45:16.704Z,89.57
2022-08-23T02:47:19.586Z,88.35
2022-08-23T02:49:21.156Z,88.89
2022-08-23T02:51:23.104Z,90.21
2022-08-23T02:53:24.607Z,89.60
2022-08-23T02:55:26.552Z,89.16
2022-08-23T02:57:28.225Z,88.95
2022-08-23T02:59:33.159Z,89.60
2022-08-23T03:01:36.931Z,89.61
2022-08-23T03:03:39.940Z,89.31
2022-08-23T03:05:41.797Z,89.68
2022-08-23T03:07:43.435Z,89.92
2022-08-23T03:09:44.998Z,90.68
2022-08-23T03:11:48.245Z,90.40
2022-08-23T03:13:50.635Z,90.83
2022-08-23T03:15:52.209Z,92.15
2022-08-23T03:17:53.829Z,92.95
2022-08-23T03:19:56.702Z,92.19
2022-08-23T03:21:58.252Z,92.12
2022-08-23T03:23:59.815Z,92.23
2022-08-23T03:26:04.174Z,92.06
2022-08-23T03:28:06.863Z,92.67
2022-08-23T03:30:09.544Z,93.20
2022-08-23T03:32:19.491Z,93.14
2022-08-23T03:34:21.574Z,93.71
2022-08-23T03:36:28.003Z,93.44
2022-08-23T03:38:30.038Z,92.93
2022-08-23T03:40:31.817Z,93.49
2022-08-23T03:42:33.482Z,92.70
2022-08-23T03:44:35.153Z,92.95
2022-08-23T03:46:36.669Z,92.66
2022-08-23T03:48:38.176Z,91.66
2022-08-23T03:50:39.748Z,92.30
2022-08-23T03:52:42.705Z,92.08
2022-08-23T03:54:44.219Z,91.98
2022-08-23T03:56:52.495Z,91.57
2022-08-23T03:58:55.610Z,92.24
2022-08-23T04:00:57.126Z,93.04
2022-08-23T04:02:58.674Z,93.39
2022-08-23T04:05:00.185Z,94.77
2022-08-23T04:07:01.717Z,94.76
2022-08-23T04:09:04.686Z,94.79
2022-08-23T04:11:06.640Z,94.43
2022-08-23T04:13:08.835Z,94.65
2022-08-23T04:15:11.369Z,95.27
2022-08-23T04:17:13.003Z,95.25
2022-08-23T04:19:15.729Z,95.37
2022-08-23T04:21:22.197Z,95.89
2022-08-23T04:23:23.791Z,94.95
2022-08-23T04:25:34.264Z,94.93
2022-08-23T04:27:36.903Z,94.96
2022-08-23T04:29:39.155Z,95.62
2022-08-23T04:31:40.701Z,94.99
2022-08-23T04:33:42.898Z,95.06
2022-08-23T04:35:44.576Z,95.00
2022-08-23T04:37:46.155Z,95.75
2022-08-23T04:39:47.690Z,95.04
2022-08-23T04:41:54.934Z,95.65
2022-08-23T04:43:56.532Z,96.31
2022-08-23T04:45:58.066Z,96.81
2022-08-23T04:48:00.174Z,96.16
2022-08-23T04:50:02.164Z,95.49
2022-08-23T04:52:03.839Z,95.90
2022-08-23T04:54:05.921Z,96.06
2022-08-23T04:56:08.379Z,96.03
2022-08-23T04:58:11.250Z,96.69
2022-08-23T05:00:14.126Z,97.00
2022-08-23T05:02:15.665Z,96.53
2022-08-23T05:04:17.897Z,96.29
2022-08-23T05:06:19.442Z,96.57
2022-08-23T05:08:21.085Z,96.64
2022-08-23T05:10:22.826Z,97.24
2022-08-23T05:12:24.429Z,96.72
2022-08-23T05:14:27.386Z,96.13
2022-08-23T05:16:29.005Z,95.80
2022-08-23T05:18:31.139Z,95.73
2022-08-23T05:20:32.835Z,95.32
2022-08-23T05:22:35.353Z,95.86
2022-08-23T05:24:36.906Z,96.21
2022-08-23T05:26:38.521Z,95.23
2022-08-23T05:28:41.733Z,95.23
2022-08-23T05:30:56.255Z,95.29
2022-08-23T05:32:58.820Z,94.06
2022-08-23T05:35:02.897Z,95.12
2022-08-23T05:37:04.477Z,95.33
2022-08-23T05:39:06.913Z,95.18
2022-08-23T05:41:09.453Z,95.42
2022-08-23T05:43:11.003Z,95.59
2022-08-23T05:45:12.514Z,94.25
2022-08-23T05:47:17.772Z,94.33
2022-08-23T05:49:26.339Z,94.83
2022-08-23T05:51:30.163Z,94.52
2022-08-23T05:53:31.704Z,94.09
2022-08-23T05:55:35.006Z,95.31
2022-08-23T05:57:37.525Z,94.69
2022-08-23T05:59:39.026Z,95.32
2022-08-23T06:01:41.421Z,95.30
2022-08-23T06:03:44.407Z,95.08
2022-08-23T06:05:45.987Z,94.83
2022-08-23T06:07:48.318Z,94.00
2022-08-23T06:09:50.948Z,94.91
2022-08-23T06:11:52.576Z,95.23
2022-08-23T06:13:56.197Z,94.08
2022-08-23T06:15:58.310Z,93.84
2022-08-23T06:17:59.997Z,93.00
2022-08-23T06:20:03.713Z,92.62
2022-08-23T06:22:05.466Z,93.25
2022-08-23T06:24:07.310Z,92.77
2022-08-23T06:26:13.232Z,94.07
2022-08-23T06:28:15.135Z,93.13
2022-08-23T06:30:16.766Z,91.96
2022-08-23T06:32:18.530Z,92.30
2022-08-23T06:34:23.175Z,92.05
2022-08-23T06:36:26.010Z,91.14
2022-08-23T06:38:27.662Z,90.60
2022-08-23T06:40:29.271Z,89.03
2022-08-23T06:42:39.040Z,89.29
2022-08-23T06:44:40.726Z,88.91
2022-08-23T06:46:42.398Z,88.75
2022-08-23T06:48:45.220Z,88.58
2022-08-23T06:50:47.824Z,88.27
2022-08-23T06:52:51.122Z,88.53
2022-08-23T06:54:53.267Z,87.91
2022-08-23T06:56:55.739Z,87.17
2022-08-23T06:58:57.655Z,86.91
2022-08-23T07:01:18.742Z,87.29
2022-08-23T07:03:30.325Z,86.93
2022-08-23T07:05:38.080Z,86.98
2022-08-23T07:07:44.194Z,87.50
2022-08-23T07:09:47.704Z,87.52
2022-08-23T07:11:49.349Z,86.60
2022-08-23T07:13:51.175Z,86.43
2022-08-23T07:15:57.513Z,86.40
2022-08-23T07:17:59.077Z,86.23
2022-08-23T07:20:00.596Z,85.28
2022-08-23T07:22:04.011Z,84.48
2022-08-23T07:24:06.044Z,84.97
2022-08-23T07:26:13.347Z,85.50
2022-08-23T07:28:14.943Z,85.43
2022-08-23T07:30:16.503Z,85.02
2022-08-23T07:32:18.693Z,84.91
2022-08-23T07:34:21.681Z,84.41
2022-08-23T07:36:24.836Z,84.79
2022-08-23T07:38:29.929Z,84.75
2022-08-23T07:40:36.800Z,84.35
2022-08-23T07:42:42.095Z,85.32
2022-08-23T07:44:43.980Z,85.12
2022-08-23T07:46:47.134Z,84.91
2022-08-23T07:48:54.452Z,84.70
2022-08-23T07:51:01.199Z,84.78
2022-08-23T07:53:03.809Z,84.30
2022-08-23T07:55:07.012Z,84.16
2022-08-23T07:57:08.592Z,83.44
2022-08-23T07:59:12.918Z,83.15
2022-08-23T08:01:17.657Z,82.98
2022-08-23T08:03:19.910Z,82.77
2022-08-23T08:05:22.115Z,82.38
2022-08-23T08:07:23.681Z,82.53
2022-08-23T08:09:25.183Z,81.99
2022-08-23T08:11:32.365Z,81.38
2022-08-23T08:13:37.680Z,81.36
2022-08-23T08:15:41.865Z,81.69
2022-08-23T08:17:43.436Z,82.22
2022-08-23T08:19:45.381Z,82.44
2022-08-23T08:21:47.383Z,82.44
2022-08-23T08:23:49.699Z,81.95
2022-08-23T08:25:59.587Z,81.65
2022-08-23T08:28:01.266Z,79.53
2022-08-23T08:30:03.059Z,80.08
2022-08-23T08:32:06.085Z,78.44
2022-08-23T08:34:08.303Z,79.75
2022-08-23T08:36:28.789Z,77.14
2022-08-23T08:38:30.886Z,76.68
2022-08-23T08:40:39.397Z,76.70
2022-08-23T08:42:52.940Z,74.54
2022-08-23T08:44:57.781Z,74.28
2022-08-23T08:46:59.604Z,73.00
2022-08-23T08:49:04.771Z,73.21
2022-08-23T08:51:16.988Z,73.28
2022-08-23T08:53:24.861Z,72.79
2022-08-23T08:55:31.875Z,71.88
2022-08-23T08:57:40.148Z,73.06
2022-08-23T08:59:50.721Z,74.03
2022-08-23T09:01:53.019Z,74.58
2022-08-23T09:03:55.793Z,72.64
2022-08-23T09:06:03.418Z,73.44
2022-08-23T09:08:17.387Z,72.50
2022-08-23T09:10:45.060Z,72.07
2022-08-23T09:12:54.079Z,72.18
2022-08-23T09:15:11.088Z,72.23
2022-08-23T09:17:20.804Z,71.95
2022-08-23T09:19:25.079Z,73.35
2022-08-23T09:21:32.261Z,72.13
2022-08-23T09:23:36.696Z,71.42
2022-08-23T09:25:38.599Z,71.17
2022-08-23T09:27:41.404Z,71.42
2022-08-23T09:29:53.596Z,71.42
2022-08-23T09:31:58.242Z,71.53
2022-08-23T09:34:00.025Z,71.47
2022-08-23T09:36:14.752Z,71.26
2022-08-23T09:38:19.981Z,69.98
2022-08-23T09:40:30.305Z,69.99
2022-08-23T09:42:35.017Z,70.67
2022-08-23T09:44:38.928Z,71.51
2022-08-23T09:46:41.360Z,70.71
2022-08-23T09:48:45.019Z,70.35
2022-08-23T09:50:52.360Z,70.21
2022-08-23T09:53:00.538Z,69.68
2022-08-23T09:55:07.023Z,68.89
2022-08-23T09:57:11.070Z,68.04
2022-08-23T09:59:35.313Z,67.65
2022-08-23T10:01:39.328Z,68.55
2022-08-23T10:03:41.847Z,67.67
2022-08-23T10:05:43.421Z,68.53
2022-08-23T10:07:54.358Z,68.77
2022-08-23T10:10:16.035Z,67.27
2022-08-23T10:12:17.648Z,67.76
2022-08-23T10:14:24.313Z,67.43
2022-08-23T10:16:39.910Z,67.74
2022-08-23T10:18:53.845Z,67.07
2022-08-23T10:21:02.992Z,68.61
2022-08-23T10:23:17.147Z,68.10
2022-08-23T10:25:26.581Z,66.92
2022-08-23T10:27:48.374Z,67.49
2022-08-23T10:29:53.256Z,66.48
2022-08-23T10:32:05.440Z,66.84
2022-08-23T10:34:21.516Z,67.33
2022-08-23T10:36:28.838Z,66.57
2022-08-23T10:38:45.384Z,64.63
2022-08-23T10:40:57.143Z,65.33
2022-08-23T10:43:14.027Z,65.03
2022-08-23T10:45:20.811Z,65.80
2022-08-23T10:47:32.445Z,64.33
2022-08-23T10:49:36.335Z,62.71
2022-08-23T10:51:42.878Z,61.65
2022-08-23T10:53:49.050Z,62.42
2022-08-23T10:55:55.782Z,63.21
2022-08-23T10:57:57.635Z,64.27
2022-08-23T10:59:59.806Z,63.03
2022-08-23T11:02:12.973Z,62.84
2022-08-23T11:04:26.196Z,63.13
2022-08-23T11:06:45.523Z,63.46
2022-08-23T11:08:48.097Z,63.91
2022-08-23T11:10:53.771Z,63.09
2022-08-23T11:13:04.164Z,63.11
2022-08-23T11:15:19.039Z,63.06
2022-08-23T11:17:26.823Z,63.44
2022-08-23T11:19:51.711Z,61.62
2022-08-23T11:22:13.950Z,62.78
2022-08-23T11:24:53.599Z,62.82
2022-08-23T11:27:06.985Z,61.21
2022-08-23T11:29:23.589Z,60.74
2022-08-23T11:31:31.837Z,61.25
2022-08-23T11:33:36.246Z,60.23
2022-08-23T11:35:43.064Z,60.92
2022-08-23T11:38:01.621Z,62.17
2022-08-23T11:40:09.309Z,62.15
2022-08-23T11:42:10.967Z,60.89
2022-08-23T11:44:23.171Z,61.05
2022-08-23T11:46:32.355Z,62.00
2022-08-23T11:48:43.486Z,61.46
2022-08-23T11:51:19.801Z,60.30
2022-08-23T11:53:36.403Z,60.44
2022-08-23T11:56:07.021Z,59.75
2022-08-23T11:58:22.342Z,60.60
2022-08-23T12:00:29.246Z,60.53
2022-08-23T12:02:45.743Z,59.76
2022-08-23T12:04:51.263Z,59.07
2022-08-23T12:06:54.031Z,58.75
2022-08-23T12:08:58.912Z,59.28
2022-08-23T12:11:05.985Z,59.74
2022-08-23T12:13:30.487Z,60.09
2022-08-23T12:16:06.805Z,59.81
2022-08-23T12:18:24.137Z,59.49
2022-08-23T12:20:30.684Z,57.93
2022-08-23T12:22:56.608Z,58.09
2022-08-23T12:25:00.844Z,56.36
2022-08-23T12:27:13.995Z,56.41
2022-08-23T12:29:27.424Z,55.94
2022-08-23T12:31:35.773Z,55.81
2022-08-23T12:33:50.328Z,56.11
2022-08-23T12:36:02.404Z,56.26
2022-08-23T12:38:14.651Z,57.46
2022-08-23T12:40:26.021Z,57.24
2022-08-23T12:42:31.173Z,57.36
2022-08-23T12:44:33.977Z,57.89
2022-08-23T12:46:39.714Z,58.74
2022-08-23T12:48:46.907Z,59.62
2022-08-23T12:50:54.591Z,59.63
2022-08-23T12:52:58.388Z,59.46
2022-08-23T12:55:01.024Z,58.72
2022-08-23T12:57:04.253Z,57.07
2022-08-23T12:59:06.884Z,55.77
2022-08-23T13:01:20.513Z,56.30
2022-08-23T13:03:25.608Z,57.52
2022-08-23T13:05:33.954Z,57.27
2022-08-23T13:07:37.137Z,55.60
2022-08-23T13:09:40.914Z,53.83
2022-08-23T13:11:43.057Z,53.30
2022-08-23T13:13:45.003Z,53.40
2022-08-23T13:15:50.623Z,53.36
2022-08-23T13:18:00.282Z,52.68
2022-08-23T13:20:19.439Z,53.05
2022-08-23T13:22:25.997Z,54.32
2022-08-23T13:24:37.859Z,54.59
2022-08-23T13:26:43.105Z,55.39
2022-08-23T13:29:00.745Z,55.13
2022-08-23T13:31:04.614Z,55.79
2022-08-23T13:33:21.266Z,55.84
2022-08-23T13:35:34.721Z,53.81
2022-08-23T13:37:45.965Z,52.84
2022-08-23T13:39:50.899Z,53.28
2022-08-23T13:41:52.594Z,53.29
2022-08-23T13:43:54.402Z,54.47
2022-08-23T13:45:58.134Z,53.74
2022-08-23T13:48:02.917Z,53.93
2022-08-23T13:50:09.773Z,53.18
2022-08-23T13:52:45.961Z,53.10
2022-08-23T13:54:37.518Z,53.88
2022-08-23T13:56:46.214Z,53.80
2022-08-23T13:58:55.015Z,53.10
2022-08-23T14:00:58.890Z,53.58
2022-08-23T14:03:01.004Z,52.54
2022-08-23T14:05:03.310Z,52.69
2022-08-23T14:07:05.194Z,53.33
2022-08-23T14:09:06.800Z,53.10
2022-08-23T14:11:11.015Z,53.54
2022-08-23T14:13:13.780Z,53.89
2022-08-23T14:15:15.815Z,54.71
2022-08-23T14:17:20.591Z,54.98
2022-08-23T14:21:43.803Z,54.89
2022-08-23T14:23:45.332Z,54.77
2022-08-23T14:25:48.503Z,55.86
2022-08-23T14:27:51.345Z,55.96
2022-08-23T14:29:52.893Z,56.25
2022-08-23T14:31:55.884Z,56.23
2022-08-23T14:34:01.753Z,53.48
2022-08-23T14:36:04.939Z,54.50
2022-08-23T14:38:06.535Z,55.16
2022-08-23T14:40:08.910Z,55.46
2022-08-23T14:42:12.946Z,55.22
2022-08-23T14:44:16.568Z,55.37
2022-08-23T14:46:18.659Z,55.90
2022-08-23T14:48:20.588Z,56.08
2022-08-23T14:50:22.364Z,55.89
2022-08-23T14:52:24.079Z,55.52
2022-08-23T14:54:26.641Z,55.94
2022-08-23T14:56:28.255Z,56.21
2022-08-23T14:58:29.789Z,54.59
2022-08-23T15:00:34.612Z,54.13
2022-08-23T15:02:36.161Z,54.10
2022-08-23T15:04:39.260Z,53.04
2022-08-23T15:06:54.894Z,52.89
2022-08-23T15:09:02.515Z,52.58
2022-08-23T15:13:32.654Z,53.59
2022-08-23T15:15:37.078Z,52.80
2022-08-23T15:17:46.860Z,52.80
2022-08-23T15:19:48.475Z,53.66
2022-08-23T15:21:50.006Z,54.19
2022-08-23T15:23:51.533Z,54.64
2022-08-23T15:25:53.608Z,54.62
2022-08-23T15:27:55.916Z,55.41
2022-08-23T15:29:57.488Z,54.89
2022-08-23T15:32:00.505Z,55.55
2022-08-23T15:34:02.015Z,54.17
2022-08-23T15:36:04.427Z,54.03
2022-08-23T15:38:07.379Z,53.61
2022-08-23T15:40:10.634Z,54.08
2022-08-23T15:42:16.593Z,54.72
2022-08-23T15:44:22.034Z,54.72
2022-08-23T15:46:24.170Z,54.73
2022-08-23T15:48:29.811Z,53.58
2022-08-23T15:50:34.520Z,54.32
2022-08-23T15:52:36.269Z,53.52
2022-08-23T15:54:37.807Z,53.85
2022-08-23T15:56:42.309Z,53.76
2022-08-23T15:58:44.020Z,54.65
2022-08-23T16:00:46.834Z,54.56
2022-08-23T16:03:19.796Z,55.44
2022-08-23T16:05:12.823Z,54.59
2022-08-23T16:07:16.676Z,55.09
2022-08-23T16:09:21.503Z,55.13
2022-08-23T16:11:24.129Z,55.99
2022-08-23T16:13:26.384Z,55.93
2022-08-23T16:15:27.981Z,55.63
2022-08-23T16:17:30.112Z,55.48
2022-08-23T16:19:31.635Z,54.58
2022-08-23T16:21:35.945Z,55.11
2022-08-23T16:23:37.530Z,54.92
2022-08-23T16:25:39.607Z,55.35
2022-08-23T16:27:41.170Z,54.99
2022-08-23T16:29:42.759Z,55.00
2022-08-23T16:31:44.712Z,56.09
2022-08-23T16:33:46.454Z,55.00
2022-08-23T16:35:47.964Z,54.49
2022-08-23T16:37:51.108Z,55.63
2022-08-23T16:39:52.790Z,55.48
2022-08-23T16:41:54.704Z,55.03
2022-08-23T16:43:56.218Z,54.53
2022-08-23T16:45:57.916Z,54.67
2022-08-23T16:47:59.581Z,55.33
2022-08-23T16:50:01.087Z,55.00
2022-08-23T16:52:03.526Z,55.42
2022-08-23T16:54:06.667Z,55.25
2022-08-23T16:56:08.302Z,55.25
2022-08-23T16:58:10.093Z,55.49
2022-08-23T17:00:12.909Z,54.26
2022-08-23T17:02:25.472Z,55.78
2022-08-23T17:04:30.334Z,56.12
2022-08-23T17:06:32.199Z,55.58
2022-08-23T17:08:33.744Z,56.81
2022-08-23T17:10:36.655Z,56.72
2022-08-23T17:12:43.028Z,56.98
2022-08-23T17:14:49.022Z,57.66
2022-08-23T17:16:50.903Z,57.83
2022-08-23T17:18:54.164Z,57.88
2022-08-23T17:20:56.248Z,57.97
2022-08-23T17:22:58.299Z,58.15
2022-08-23T17:24:59.924Z,58.63
2022-08-23T17:27:03.494Z,58.71
2022-08-23T17:29:05.097Z,58.76
2022-08-23T17:31:06.680Z,58.96
2022-08-23T17:33:08.422Z,58.94
2022-08-23T17:35:14.924Z,59.50
2022-08-23T17:37:19.866Z,59.45
2022-08-23T17:39:23.982Z,59.63
2022-08-23T17:41:26.735Z,59.94
2022-08-23T17:43:29.620Z,60.39
2022-08-23T17:45:39.325Z,60.36
2022-08-23T17:47:41.529Z,60.58
2022-08-23T17:49:43.366Z,61.53
2022-08-23T17:51:45.415Z,61.28
2022-08-23T17:53:47.029Z,62.12
2022-08-23T17:55:48.588Z,61.82
2022-08-23T17:57:50.466Z,62.13
2022-08-23T17:59:54.169Z,61.67
2022-08-23T18:01:55.698Z,62.60
2022-08-23T18:03:57.224Z,62.38
2022-08-23T18:05:59.796Z,62.58
2022-08-23T18:08:01.820Z,62.42
2022-08-23T18:10:05.076Z,62.80
2022-08-23T18:12:06.983Z,63.24
2022-08-23T18:14:08.873Z,63.28
2022-08-23T18:16:11.827Z,63.61
2022-08-23T18:18:13.449Z,63.40
2022-08-23T18:20:15.032Z,63.77
2022-08-23T18:22:16.578Z,63.55
2022-08-23T18:24:18.727Z,64.08
2022-08-23T18:26:20.826Z,64.46
2022-08-23T18:28:22.369Z,64.75
2022-08-23T18:30:25.029Z,65.28
2022-08-23T18:32:27.891Z,65.34
2022-08-23T18:34:29.535Z,65.74
2022-08-23T18:36:31.090Z,65.93
2022-08-23T18:38:32.644Z,65.73
2022-08-23T18:40:34.201Z,66.05
2022-08-23T18:42:35.783Z,66.65
2022-08-23T18:44:37.393Z,66.90
2022-08-23T18:46:41.605Z,67.25
2022-08-23T18:48:53.252Z,67.62
2022-08-23T18:50:55.367Z,68.23
2022-08-23T18:52:57.184Z,68.77
2022-08-23T18:54:59.115Z,68.62
2022-08-23T18:57:00.685Z,69.22
2022-08-23T18:59:02.639Z,69.42
2022-08-23T19:01:19.800Z,69.54
2022-08-23T19:03:21.634Z,70.01
2022-08-23T19:05:24.615Z,69.67
2022-08-23T19:07:26.291Z,69.99
2022-08-23T19:09:27.979Z,70.41
2022-08-23T19:11:29.821Z,71.14
2022-08-23T19:13:32.971Z,71.12
2022-08-23T19:15:35.552Z,70.56
2022-08-23T19:17:37.110Z,71.40
2022-08-23T19:19:38.663Z,71.75
2022-08-23T19:21:41.542Z,72.75
2022-08-23T19:23:43.075Z,72.46
2022-08-23T19:25:44.779Z,72.51
2022-08-23T19:27:46.387Z,73.43
2022-08-23T19:29:47.912Z,74.56
2022-08-23T19:31:49.646Z,74.48
2022-08-23T19:33:51.269Z,74.57
2022-08-23T19:35:52.846Z,74.80
2022-08-23T19:37:58.840Z,74.52
2022-08-23T19:40:00.768Z,75.26
2022-08-23T19:42:02.518Z,75.40
2022-08-23T19:44:04.267Z,75.76
2022-08-23T19:46:06.852Z,75.89
2022-08-23T19:48:08.447Z,76.57
2022-08-23T19:50:10.544Z,76.84
2022-08-23T19:52:12.170Z,76.95
2022-08-23T19:54:15.431Z,78.06
2022-08-23T19:56:18.893Z,78.37
2022-08-23T19:58:21.640Z,79.40
2022-08-23T20:00:24.517Z,79.10
2022-08-23T20:02:26.689Z,79.75
2022-08-23T20:04:30.295Z,79.21
2022-08-23T20:06:32.152Z,79.91
2022-08-23T20:08:33.845Z,79.63
2022-08-23T20:10:36.718Z,79.99
2022-08-23T20:12:39.524Z,80.74
2022-08-23T20:14:41.231Z,80.31
2022-08-23T20:16:42.792Z,80.54
2022-08-23T20:18:44.365Z,80.68
2022-08-23T20:20:46.155Z,80.85
2022-08-23T20:22:47.689Z,81.05
2022-08-23T20:24:52.211Z,81.23
2022-08-23T20:26:55.721Z,81.41
2022-08-23T20:28:59.777Z,82.19
2022-08-23T20:31:06.478Z,82.21
2022-08-23T20:33:08.115Z,82.37
2022-08-23T20:35:11.269Z,82.97
2022-08-23T20:37:12.828Z,83.38
2022-08-23T20:39:14.381Z,83.33
2022-08-23T20:41:16.902Z,83.18
2022-08-23T20:43:19.893Z,83.28
2022-08-23T20:45:21.538Z,83.88
2022-08-23T20:47:23.203Z,84.13
2022-08-23T20:49:24.811Z,83.91
2022-08-23T20:51:29.667Z,84.00
2022-08-23T20:53:32.060Z,84.13
2022-08-23T20:55:33.571Z,84.51
2022-08-23T20:57:38.533Z,85.01
2022-08-23T20:59:44.679Z,85.49
2022-08-23T21:01:47.175Z,85.07
2022-08-23T21:03:49.084Z,85.45
2022-08-23T21:05:50.725Z,85.86
2022-08-23T21:07:52.316Z,85.93
2022-08-23T21:09:54.042Z,86.18
2022-08-23T21:11:55.562Z,86.59
2022-08-23T21:13:57.788Z,86.87
2022-08-23T21:16:01.067Z,86.98
2022-08-23T21:18:02.677Z,87.13
2022-08-23T21:20:04.943Z,87.31
2022-08-23T21:22:09.915Z,88.03
2022-08-23T21:24:11.930Z,88.04
2022-08-23T21:26:13.696Z,88.20
2022-08-23T21:28:15.187Z,88.66
2022-08-23T21:30:16.755Z,88.83
2022-08-23T21:32:20.031Z,88.85
2022-08-23T21:34:21.633Z,89.35
2022-08-23T21:36:24.606Z,89.33
2022-08-23T21:38:26.336Z,90.10
2022-08-23T21:40:27.947Z,90.35
2022-08-23T21:42:29.477Z,90.51
2022-08-23T21:44:31.019Z,90.93
2022-08-23T21:46:33.141Z,91.13
2022-08-23T21:48:37.663Z,91.09
2022-08-23T21:50:39.163Z,91.71
2022-08-23T21:52:40.729Z,91.46
2022-08-23T21:54:43.678Z,91.69
2022-08-23T21:56:48.419Z,91.36
2022-08-23T21:58:50.649Z,91.03
2022-08-23T22:00:54.563Z,91.45
2022-08-23T22:02:58.434Z,91.79
2022-08-23T22:05:01.729Z,92.00
2022-08-23T22:07:03.410Z,92.74
2022-08-23T22:09:08.236Z,93.09
2022-08-23T22:11:10.080Z,93.44
2022-08-23T22:13:11.807Z,93.82
2022-08-23T22:15:14.022Z,94.21
2022-08-23T22:17:17.346Z,94.90
2022-08-23T22:19:22.078Z,95.51
2022-08-23T22:21:24.990Z,95.93
2022-08-23T22:23:27.109Z,96.45
2022-08-23T22:25:28.683Z,95.64
2022-08-23T22:27:30.247Z,94.99
2022-08-23T22:29:31.789Z,95.50
2022-08-23T22:31:33.603Z,96.13
2022-08-23T22:33:35.150Z,95.92
2022-08-23T22:35:36.883Z,96.70
2022-08-23T22:37:53.602Z,97.19
2022-08-23T22:39:59.995Z,97.33
2022-08-23T22:42:01.600Z,97.60
2022-08-23T22:44:06.928Z,97.53
2022-08-23T22:46:09.718Z,96.48
2022-08-23T22:48:11.267Z,95.48
2022-08-23T22:50:12.775Z,95.62
2022-08-23T22:52:14.282Z,95.54
2022-08-23T22:54:17.932Z,96.70
2022-08-23T22:56:21.291Z,97.30
2022-08-23T22:58:22.857Z,97.91
2022-08-23T23:00:24.469Z,98.52
2022-08-23T23:02:25.984Z,98.19
2022-08-23T23:04:28.603Z,98.93
2022-08-23T23:06:30.468Z,99.37
2022-08-23T23:08:31.997Z,98.71
2022-08-23T23:10:34.914Z,98.41
2022-08-23T23:12:36.593Z,98.90
2022-08-23T23:14:38.095Z,99.77
2022-08-23T23:16:39.911Z,100.00
2022-08-23T23:18:43.048Z,100.00
2022-08-23T23:20:45.060Z,100.00
2022-08-23T23:22:46.566Z,100.00
2022-08-23T23:24:48.115Z,100.00
2022-08-23T23:26:51.108Z,99.62
2022-08-23T23:28:52.627Z,99.92
2022-08-23T23:30:54.992Z,100.00
2022-08-23T23:32:57.382Z,100.00
2022-08-23T23:34:58.899Z,100.00
2022-08-23T23:37:04.106Z,100.00
2022-08-23T23:39:09.270Z,100.00
2022-08-23T23:41:11.186Z,100.00
2022-08-23T23:43:14.119Z,100.00
2022-08-23T23:45:16.463Z,100.00
2022-08-23T23:47:18.000Z,100.00
2022-08-23T23:49:23.696Z,100.00
2022-08-23T23:51:34.412Z,100.00
2022-08-23T23:53:36.827Z,100.00
2022-08-23T23:55:38.396Z,100.00
2022-08-23T23:57:40.364Z,100.00
2022-08-23T23:59:46.213Z,100.00
